sensor_id;sensor_type;location;lat;lon;timestamp;pressure;altitude;pressure_sealevel;temperature
28305;BMP280;15569;42.652;23.040;2023-03-14T00:02:08;93113.00;;;3.78
28305;BMP280;15569;42.652;23.040;2023-03-14T00:04:35;93090.94;;;3.97
28305;BMP280;15569;42.652;23.040;2023-03-14T00:07:00;93097.34;;;4.01
28305;BMP280;15569;42.652;23.040;2023-03-14T00:09:26;93096.00;;;3.93
28305;BMP280;15569;42.652;23.040;2023-03-14T00:11:54;93087.47;;;3.87
28305;BMP280;15569;42.652;23.040;2023-03-14T00:14:20;93094.72;;;3.77
28305;BMP280;15569;42.652;23.040;2023-03-14T00:16:46;93092.34;;;3.98
28305;BMP280;15569;42.652;23.040;2023-03-14T00:19:11;93088.09;;;3.78
28305;BMP280;15569;42.652;23.040;2023-03-14T00:21:37;93076.75;;;3.45
28305;BMP280;15569;42.652;23.040;2023-03-14T00:24:02;93080.16;;;3.63
28305;BMP280;15569;42.652;23.040;2023-03-14T00:26:28;93089.44;;;3.86
28305;BMP280;15569;42.652;23.040;2023-03-14T00:28:53;93077.34;;;3.61
28305;BMP280;15569;42.652;23.040;2023-03-14T00:31:19;93076.00;;;3.69
28305;BMP280;15569;42.652;23.040;2023-03-14T00:33:45;93084.78;;;3.70
28305;BMP280;15569;42.652;23.040;2023-03-14T00:36:13;93076.47;;;3.58
28305;BMP280;15569;42.652;23.040;2023-03-14T00:38:40;93081.50;;;3.71
28305;BMP280;15569;42.652;23.040;2023-03-14T00:41:08;93077.97;;;3.69
28305;BMP280;15569;42.652;23.040;2023-03-14T00:43:34;93081.03;;;3.65
28305;BMP280;15569;42.652;23.040;2023-03-14T00:45:59;93065.63;;;3.66
28305;BMP280;15569;42.652;23.040;2023-03-14T00:48:25;93067.34;;;3.53
28305;BMP280;15569;42.652;23.040;2023-03-14T00:50:50;93064.31;;;3.49
28305;BMP280;15569;42.652;23.040;2023-03-14T00:53:16;93052.25;;;3.41
28305;BMP280;15569;42.652;23.040;2023-03-14T00:55:43;93062.53;;;3.52
28305;BMP280;15569;42.652;23.040;2023-03-14T00:58:09;93066.09;;;3.55
28305;BMP280;15569;42.652;23.040;2023-03-14T01:00:35;93066.41;;;3.59
28305;BMP280;15569;42.652;23.040;2023-03-14T01:03:01;93048.84;;;3.40
28305;BMP280;15569;42.652;23.040;2023-03-14T01:05:27;93059.78;;;3.60
28305;BMP280;15569;42.652;23.040;2023-03-14T01:07:52;93062.06;;;3.46
28305;BMP280;15569;42.652;23.040;2023-03-14T01:10:18;93056.03;;;3.38
28305;BMP280;15569;42.652;23.040;2023-03-14T01:12:43;93056.59;;;3.53
28305;BMP280;15569;42.652;23.040;2023-03-14T01:15:09;93043.75;;;3.27
28305;BMP280;15569;42.652;23.040;2023-03-14T01:17:35;93030.41;;;3.20
28305;BMP280;15569;42.652;23.040;2023-03-14T01:20:03;93048.31;;;3.17
28305;BMP280;15569;42.652;23.040;2023-03-14T01:22:29;93041.41;;;3.31
28305;BMP280;15569;42.652;23.040;2023-03-14T01:24:55;93044.03;;;3.39
28305;BMP280;15569;42.652;23.040;2023-03-14T01:27:21;93038.81;;;3.41
28305;BMP280;15569;42.652;23.040;2023-03-14T01:29:46;93034.31;;;3.43
28305;BMP280;15569;42.652;23.040;2023-03-14T01:32:12;93025.59;;;3.35
28305;BMP280;15569;42.652;23.040;2023-03-14T01:34:38;93037.59;;;3.17
28305;BMP280;15569;42.652;23.040;2023-03-14T01:37:03;93028.03;;;2.99
28305;BMP280;15569;42.652;23.040;2023-03-14T01:39:29;93032.31;;;3.02
28305;BMP280;15569;42.652;23.040;2023-03-14T01:41:54;93011.56;;;3.03
28305;BMP280;15569;42.652;23.040;2023-03-14T01:44:20;93015.44;;;3.09
28305;BMP280;15569;42.652;23.040;2023-03-14T01:46:45;93012.91;;;3.11
28305;BMP280;15569;42.652;23.040;2023-03-14T01:52:02;93004.81;;;2.94
28305;BMP280;15569;42.652;23.040;2023-03-14T01:54:39;93002.50;;;3.15
28305;BMP280;15569;42.652;23.040;2023-03-14T01:57:29;92994.84;;;2.87
28305;BMP280;15569;42.652;23.040;2023-03-14T02:00:06;92991.06;;;2.90
28305;BMP280;15569;42.652;23.040;2023-03-14T02:02:37;92990.63;;;2.52
28305;BMP280;15569;42.652;23.040;2023-03-14T02:05:04;92999.63;;;2.71
28305;BMP280;15569;42.652;23.040;2023-03-14T02:07:53;92991.03;;;2.73
28305;BMP280;15569;42.652;23.040;2023-03-14T02:10:21;92995.44;;;2.78
28305;BMP280;15569;42.652;23.040;2023-03-14T02:12:48;92999.91;;;2.83
28305;BMP280;15569;42.652;23.040;2023-03-14T02:15:14;93010.75;;;2.68
28305;BMP280;15569;42.652;23.040;2023-03-14T02:17:44;93013.94;;;2.74
28305;BMP280;15569;42.652;23.040;2023-03-14T02:23:06;93000.28;;;3.04
28305;BMP280;15569;42.652;23.040;2023-03-14T02:28:00;92984.13;;;2.87
28305;BMP280;15569;42.652;23.040;2023-03-14T02:30:28;93002.69;;;2.92
28305;BMP280;15569;42.652;23.040;2023-03-14T02:35:34;92994.84;;;2.87
28305;BMP280;15569;42.652;23.040;2023-03-14T02:38:06;92992.78;;;2.78
28305;BMP280;15569;42.652;23.040;2023-03-14T02:40:32;92999.72;;;2.81
28305;BMP280;15569;42.652;23.040;2023-03-14T02:42:57;92995.63;;;2.80
28305;BMP280;15569;42.652;23.040;2023-03-14T02:45:34;92994.84;;;2.87
28305;BMP280;15569;42.652;23.040;2023-03-14T02:48:04;92986.31;;;2.81
28305;BMP280;15569;42.652;23.040;2023-03-14T02:50:33;92995.03;;;2.89
28305;BMP280;15569;42.652;23.040;2023-03-14T02:52:59;93000.56;;;2.91
28305;BMP280;15569;42.652;23.040;2023-03-14T02:55:24;92998.13;;;2.78
28305;BMP280;15569;42.652;23.040;2023-03-14T02:57:52;92997.81;;;2.74
28305;BMP280;15569;42.652;23.040;2023-03-14T03:00:18;93005.06;;;2.88
28305;BMP280;15569;42.652;23.040;2023-03-14T03:02:44;93003.38;;;2.93
28305;BMP280;15569;42.652;23.040;2023-03-14T03:05:09;93009.88;;;2.90
28305;BMP280;15569;42.652;23.040;2023-03-14T03:07:35;92999.06;;;2.73
28305;BMP280;15569;42.652;23.040;2023-03-14T03:10:00;93001.53;;;2.78
28305;BMP280;15569;42.652;23.040;2023-03-14T03:12:25;93000.94;;;2.87
28305;BMP280;15569;42.652;23.040;2023-03-14T03:14:51;92998.34;;;2.97
28305;BMP280;15569;42.652;23.040;2023-03-14T03:17:16;92994.53;;;2.83
28305;BMP280;15569;42.652;23.040;2023-03-14T03:19:43;92981.66;;;2.81
28305;BMP280;15569;42.652;23.040;2023-03-14T03:22:08;93000.28;;;2.79
28305;BMP280;15569;42.652;23.040;2023-03-14T03:24:34;93001.16;;;2.57
28305;BMP280;15569;42.652;23.040;2023-03-14T03:26:59;92996.22;;;2.46
28305;BMP280;15569;42.652;23.040;2023-03-14T03:29:24;93006.16;;;2.61
28305;BMP280;15569;42.652;23.040;2023-03-14T03:31:50;93012.59;;;2.58
28305;BMP280;15569;42.652;23.040;2023-03-14T03:34:15;93007.13;;;2.73
28305;BMP280;15569;42.652;23.040;2023-03-14T03:36:41;92996.44;;;2.65
28305;BMP280;15569;42.652;23.040;2023-03-14T03:39:07;93008.59;;;2.66
28305;BMP280;15569;42.652;23.040;2023-03-14T03:41:32;93005.53;;;2.70
28305;BMP280;15569;42.652;23.040;2023-03-14T03:43:58;93010.13;;;2.52
28305;BMP280;15569;42.652;23.040;2023-03-14T03:46:24;93013.69;;;2.55
28305;BMP280;15569;42.652;23.040;2023-03-14T03:48:57;93014.19;;;2.61
28305;BMP280;15569;42.652;23.040;2023-03-14T03:51:22;93002.91;;;2.62
28305;BMP280;15569;42.652;23.040;2023-03-14T03:53:48;93001.22;;;2.50
28305;BMP280;15569;42.652;23.040;2023-03-14T03:56:13;93007.78;;;2.56
28305;BMP280;15569;42.652;23.040;2023-03-14T03:58:39;93018.03;;;2.50
28305;BMP280;15569;42.652;23.040;2023-03-14T04:01:08;93005.91;;;2.42
28305;BMP280;15569;42.652;23.040;2023-03-14T04:03:34;93013.53;;;2.53
28305;BMP280;15569;42.652;23.040;2023-03-14T04:06:00;93011.94;;;2.50
28305;BMP280;15569;42.652;23.040;2023-03-14T04:08:26;93007.88;;;2.41
28305;BMP280;15569;42.652;23.040;2023-03-14T04:11:00;92994.09;;;2.45
28305;BMP280;15569;42.652;23.040;2023-03-14T04:13:26;92990.50;;;2.42
28305;BMP280;15569;42.652;23.040;2023-03-14T04:15:53;92993.38;;;2.44
28305;BMP280;15569;42.652;23.040;2023-03-14T04:18:19;92984.59;;;2.44
28305;BMP280;15569;42.652;23.040;2023-03-14T04:20:44;92979.53;;;2.55
28305;BMP280;15569;42.652;23.040;2023-03-14T04:23:10;92957.03;;;2.18
28305;BMP280;15569;42.652;23.040;2023-03-14T04:25:35;92981.16;;;2.18
28305;BMP280;15569;42.652;23.040;2023-03-14T04:28:01;92977.47;;;2.06
28305;BMP280;15569;42.652;23.040;2023-03-14T04:30:27;92967.28;;;2.37
28305;BMP280;15569;42.652;23.040;2023-03-14T04:32:52;92978.69;;;2.20
28305;BMP280;15569;42.652;23.040;2023-03-14T04:35:17;92958.41;;;2.27
28305;BMP280;15569;42.652;23.040;2023-03-14T04:37:43;92963.38;;;2.30
28305;BMP280;15569;42.652;23.040;2023-03-14T04:40:09;92951.50;;;2.16
28305;BMP280;15569;42.652;23.040;2023-03-14T04:42:35;92963.31;;;2.21
28305;BMP280;15569;42.652;23.040;2023-03-14T04:45:00;92964.50;;;2.27
28305;BMP280;15569;42.652;23.040;2023-03-14T04:47:26;92955.91;;;2.29
28305;BMP280;15569;42.652;23.040;2023-03-14T04:49:51;92951.19;;;2.37
28305;BMP280;15569;42.652;23.040;2023-03-14T04:52:17;92954.63;;;2.30
28305;BMP280;15569;42.652;23.040;2023-03-14T04:54:42;92945.78;;;2.20
28305;BMP280;15569;42.652;23.040;2023-03-14T04:57:08;92938.78;;;2.24
28305;BMP280;15569;42.652;23.040;2023-03-14T04:59:34;92934.50;;;2.21
28305;BMP280;15569;42.652;23.040;2023-03-14T05:01:59;92949.06;;;2.36
28305;BMP280;15569;42.652;23.040;2023-03-14T05:04:24;92952.56;;;2.46
28305;BMP280;15569;42.652;23.040;2023-03-14T05:06:50;92940.31;;;2.60
28305;BMP280;15569;42.652;23.040;2023-03-14T05:09:15;92936.38;;;2.61
28305;BMP280;15569;42.652;23.040;2023-03-14T05:11:41;92940.00;;;2.56
28305;BMP280;15569;42.652;23.040;2023-03-14T05:14:06;92939.63;;;2.59
28305;BMP280;15569;42.652;23.040;2023-03-14T05:16:32;92941.28;;;2.72
28305;BMP280;15569;42.652;23.040;2023-03-14T05:18:57;92946.50;;;2.70
28305;BMP280;15569;42.652;23.040;2023-03-14T05:21:22;92944.91;;;2.92
28305;BMP280;15569;42.652;23.040;2023-03-14T05:23:48;92937.56;;;3.09
28305;BMP280;15569;42.652;23.040;2023-03-14T05:26:13;92952.50;;;3.20
28305;BMP280;15569;42.652;23.040;2023-03-14T05:28:39;92939.00;;;3.27
28305;BMP280;15569;42.652;23.040;2023-03-14T05:31:08;92946.25;;;3.34
28305;BMP280;15569;42.652;23.040;2023-03-14T05:33:33;92936.88;;;3.43
28305;BMP280;15569;42.652;23.040;2023-03-14T05:35:59;92949.72;;;3.62
28305;BMP280;15569;42.652;23.040;2023-03-14T05:38:24;92949.56;;;3.60
28305;BMP280;15569;42.652;23.040;2023-03-14T05:40:50;92939.59;;;3.52
28305;BMP280;15569;42.652;23.040;2023-03-14T05:43:15;92949.59;;;3.25
28305;BMP280;15569;42.652;23.040;2023-03-14T05:45:41;92934.22;;;3.52
28305;BMP280;15569;42.652;23.040;2023-03-14T05:48:07;92945.63;;;3.26
28305;BMP280;15569;42.652;23.040;2023-03-14T05:50:33;92950.78;;;3.66
28305;BMP280;15569;42.652;23.040;2023-03-14T05:52:58;92939.91;;;3.74
28305;BMP280;15569;42.652;23.040;2023-03-14T05:55:24;92946.72;;;3.75
28305;BMP280;15569;42.652;23.040;2023-03-14T05:57:49;92931.38;;;3.68
28305;BMP280;15569;42.652;23.040;2023-03-14T06:00:15;92938.78;;;3.77
28305;BMP280;15569;42.652;23.040;2023-03-14T06:02:40;92941.31;;;3.75
28305;BMP280;15569;42.652;23.040;2023-03-14T06:05:07;92938.28;;;4.05
28305;BMP280;15569;42.652;23.040;2023-03-14T06:07:32;92946.94;;;4.13
28305;BMP280;15569;42.652;23.040;2023-03-14T06:09:58;92948.88;;;4.30
28305;BMP280;15569;42.652;23.040;2023-03-14T06:12:24;92951.41;;;4.28
28305;BMP280;15569;42.652;23.040;2023-03-14T06:14:49;92953.78;;;4.60
28305;BMP280;15569;42.652;23.040;2023-03-14T06:17:16;92934.03;;;4.84
28305;BMP280;15569;42.652;23.040;2023-03-14T06:19:42;92938.03;;;5.02
28305;BMP280;15569;42.652;23.040;2023-03-14T06:22:07;92923.72;;;5.19
28305;BMP280;15569;42.652;23.040;2023-03-14T06:24:32;92943.41;;;5.40
28305;BMP280;15569;42.652;23.040;2023-03-14T06:26:58;92925.84;;;5.68
28305;BMP280;15569;42.652;23.040;2023-03-14T06:29:23;92935.31;;;5.79
28305;BMP280;15569;42.652;23.040;2023-03-14T06:31:48;92924.16;;;6.03
28305;BMP280;15569;42.652;23.040;2023-03-14T06:34:14;92921.34;;;6.01
28305;BMP280;15569;42.652;23.040;2023-03-14T06:36:39;92922.53;;;6.29
28305;BMP280;15569;42.652;23.040;2023-03-14T06:39:05;92924.59;;;6.50
28305;BMP280;15569;42.652;23.040;2023-03-14T06:41:30;92916.84;;;6.35
28305;BMP280;15569;42.652;23.040;2023-03-14T06:43:56;92914.19;;;6.25
28305;BMP280;15569;42.652;23.040;2023-03-14T06:46:21;92924.78;;;6.33
28305;BMP280;15569;42.652;23.040;2023-03-14T06:48:46;92926.69;;;6.21
28305;BMP280;15569;42.652;23.040;2023-03-14T06:51:12;92911.91;;;6.22
28305;BMP280;15569;42.652;23.040;2023-03-14T06:53:37;92924.56;;;6.19
28305;BMP280;15569;42.652;23.040;2023-03-14T06:56:03;92928.16;;;6.02
28305;BMP280;15569;42.652;23.040;2023-03-14T06:58:28;92920.91;;;6.05
28305;BMP280;15569;42.652;23.040;2023-03-14T07:00:54;92921.09;;;5.88
28305;BMP280;15569;42.652;23.040;2023-03-14T07:03:20;92903.91;;;5.93
28305;BMP280;15569;42.652;23.040;2023-03-14T07:05:45;92914.03;;;6.23
28305;BMP280;15569;42.652;23.040;2023-03-14T07:08:10;92907.81;;;6.42
28305;BMP280;15569;42.652;23.040;2023-03-14T07:10:36;92902.72;;;6.46
28305;BMP280;15569;42.652;23.040;2023-03-14T07:13:02;92900.75;;;6.67
28305;BMP280;15569;42.652;23.040;2023-03-14T07:15:27;92909.78;;;6.51
28305;BMP280;15569;42.652;23.040;2023-03-14T07:17:52;92894.13;;;6.59
28305;BMP280;15569;42.652;23.040;2023-03-14T07:20:18;92900.22;;;6.59
28305;BMP280;15569;42.652;23.040;2023-03-14T07:22:43;92899.13;;;6.22
28305;BMP280;15569;42.652;23.040;2023-03-14T07:25:09;92900.47;;;6.33
28305;BMP280;15569;42.652;23.040;2023-03-14T07:27:37;92890.81;;;6.39
28305;BMP280;15569;42.652;23.040;2023-03-14T07:30:03;92903.38;;;6.56
28305;BMP280;15569;42.652;23.040;2023-03-14T07:32:28;92885.81;;;6.66
28305;BMP280;15569;42.652;23.040;2023-03-14T07:34:54;92894.72;;;7.00
28305;BMP280;15569;42.652;23.040;2023-03-14T07:37:19;92888.66;;;6.90
28305;BMP280;15569;42.652;23.040;2023-03-14T07:39:44;92887.44;;;7.02
28305;BMP280;15569;42.652;23.040;2023-03-14T07:42:10;92890.00;;;7.21
28305;BMP280;15569;42.652;23.040;2023-03-14T07:44:36;92884.94;;;7.49
28305;BMP280;15569;42.652;23.040;2023-03-14T07:47:01;92880.38;;;7.74
28305;BMP280;15569;42.652;23.040;2023-03-14T07:49:27;92884.25;;;7.60
28305;BMP280;15569;42.652;23.040;2023-03-14T07:51:52;92877.22;;;7.78
28305;BMP280;15569;42.652;23.040;2023-03-14T07:54:18;92881.00;;;8.07
28305;BMP280;15569;42.652;23.040;2023-03-14T07:56:43;92882.44;;;8.32
28305;BMP280;15569;42.652;23.040;2023-03-14T07:59:08;92868.88;;;8.20
28305;BMP280;15569;42.652;23.040;2023-03-14T08:01:34;92878.16;;;8.52
28305;BMP280;15569;42.652;23.040;2023-03-14T08:03:59;92878.16;;;8.63
28305;BMP280;15569;42.652;23.040;2023-03-14T08:06:25;92870.97;;;8.56
28305;BMP280;15569;42.652;23.040;2023-03-14T08:08:50;92874.53;;;8.96
28305;BMP280;15569;42.652;23.040;2023-03-14T08:11:16;92885.03;;;8.90
28305;BMP280;15569;42.652;23.040;2023-03-14T08:13:41;92867.66;;;9.06
28305;BMP280;15569;42.652;23.040;2023-03-14T08:16:07;92865.72;;;9.20
28305;BMP280;15569;42.652;23.040;2023-03-14T08:18:33;92868.47;;;9.34
28305;BMP280;15569;42.652;23.040;2023-03-14T08:20:58;92860.66;;;9.40
28305;BMP280;15569;42.652;23.040;2023-03-14T08:23:24;92864.66;;;9.64
28305;BMP280;15569;42.652;23.040;2023-03-14T08:25:50;92854.16;;;9.97
28305;BMP280;15569;42.652;23.040;2023-03-14T08:28:16;92855.47;;;10.23
28305;BMP280;15569;42.652;23.040;2023-03-14T08:30:42;92849.53;;;10.41
28305;BMP280;15569;42.652;23.040;2023-03-14T08:33:07;92843.69;;;10.60
28305;BMP280;15569;42.652;23.040;2023-03-14T08:35:33;92844.25;;;10.72
28305;BMP280;15569;42.652;23.040;2023-03-14T08:37:58;92827.94;;;10.72
28305;BMP280;15569;42.652;23.040;2023-03-14T08:40:24;92839.94;;;10.67
28305;BMP280;15569;42.652;23.040;2023-03-14T08:42:49;92829.28;;;11.00
28305;BMP280;15569;42.652;23.040;2023-03-14T08:45:16;92824.59;;;11.32
28305;BMP280;15569;42.652;23.040;2023-03-14T08:47:43;92824.81;;;10.35
28305;BMP280;15569;42.652;23.040;2023-03-14T08:50:09;92825.22;;;11.01
28305;BMP280;15569;42.652;23.040;2023-03-14T08:52:35;92810.47;;;10.90
28305;BMP280;15569;42.652;23.040;2023-03-14T08:55:00;92814.59;;;11.21
28305;BMP280;15569;42.652;23.040;2023-03-14T08:57:26;92816.19;;;11.72
28305;BMP280;15569;42.652;23.040;2023-03-14T08:59:55;92816.09;;;11.55
28305;BMP280;15569;42.652;23.040;2023-03-14T09:02:21;92817.41;;;12.01
28305;BMP280;15569;42.652;23.040;2023-03-14T09:04:46;92812.34;;;11.77
28305;BMP280;15569;42.652;23.040;2023-03-14T09:07:12;92785.63;;;11.27
28305;BMP280;15569;42.652;23.040;2023-03-14T09:09:37;92803.03;;;11.36
28305;BMP280;15569;42.652;23.040;2023-03-14T09:12:03;92777.81;;;11.20
28305;BMP280;15569;42.652;23.040;2023-03-14T09:14:30;92779.03;;;11.79
28305;BMP280;15569;42.652;23.040;2023-03-14T09:16:55;92784.56;;;12.30
28305;BMP280;15569;42.652;23.040;2023-03-14T09:19:20;92781.19;;;12.64
28305;BMP280;15569;42.652;23.040;2023-03-14T09:21:46;92765.66;;;12.87
28305;BMP280;15569;42.652;23.040;2023-03-14T09:24:11;92769.19;;;13.26
28305;BMP280;15569;42.652;23.040;2023-03-14T09:26:37;92772.19;;;12.97
28305;BMP280;15569;42.652;23.040;2023-03-14T09:29:03;92749.13;;;12.30
28305;BMP280;15569;42.652;23.040;2023-03-14T09:31:28;92743.56;;;12.61
28305;BMP280;15569;42.652;23.040;2023-03-14T09:33:54;92740.22;;;12.12
28305;BMP280;15569;42.652;23.040;2023-03-14T09:36:20;92751.31;;;12.16
28305;BMP280;15569;42.652;23.040;2023-03-14T09:38:45;92752.09;;;12.36
28305;BMP280;15569;42.652;23.040;2023-03-14T09:41:21;92743.84;;;12.69
28305;BMP280;15569;42.652;23.040;2023-03-14T09:43:55;92741.31;;;13.10
28305;BMP280;15569;42.652;23.040;2023-03-14T09:46:24;92724.13;;;13.65
28305;BMP280;15569;42.652;23.040;2023-03-14T09:48:50;92731.81;;;13.90
28305;BMP280;15569;42.652;23.040;2023-03-14T09:51:17;92723.25;;;13.99
28305;BMP280;15569;42.652;23.040;2023-03-14T09:53:47;92718.63;;;14.25
28305;BMP280;15569;42.652;23.040;2023-03-14T09:56:33;92708.94;;;13.79
28305;BMP280;15569;42.652;23.040;2023-03-14T09:59:05;92703.81;;;14.32
28305;BMP280;15569;42.652;23.040;2023-03-14T10:01:36;92698.59;;;14.19
28305;BMP280;15569;42.652;23.040;2023-03-14T10:04:05;92707.34;;;14.37
28305;BMP280;15569;42.652;23.040;2023-03-14T10:06:31;92693.13;;;14.86
28305;BMP280;15569;42.652;23.040;2023-03-14T10:08:57;92681.78;;;15.21
28305;BMP280;15569;42.652;23.040;2023-03-14T10:11:23;92662.84;;;15.29
28305;BMP280;15569;42.652;23.040;2023-03-14T10:16:30;92656.94;;;15.66
28305;BMP280;15569;42.652;23.040;2023-03-14T10:19:19;92676.84;;;15.94
28305;BMP280;15569;42.652;23.040;2023-03-14T10:21:53;92663.97;;;15.20
28305;BMP280;15569;42.652;23.040;2023-03-14T10:24:27;92645.94;;;15.39
28305;BMP280;15569;42.652;23.040;2023-03-14T10:27:18;92655.16;;;14.98
28305;BMP280;15569;42.652;23.040;2023-03-14T10:30:01;92650.47;;;15.28
28305;BMP280;15569;42.652;23.040;2023-03-14T10:32:37;92646.59;;;14.38
28305;BMP280;15569;42.652;23.040;2023-03-14T10:37:59;92644.09;;;14.47
28305;BMP280;15569;42.652;23.040;2023-03-14T10:40:30;92636.91;;;14.83
28305;BMP280;15569;42.652;23.040;2023-03-14T10:42:58;92629.00;;;15.18
28305;BMP280;15569;42.652;23.040;2023-03-14T10:45:38;92618.88;;;15.51
28305;BMP280;15569;42.652;23.040;2023-03-14T10:48:24;92623.91;;;15.33
28305;BMP280;15569;42.652;23.040;2023-03-14T10:50:55;92609.00;;;15.40
28305;BMP280;15569;42.652;23.040;2023-03-14T10:53:22;92599.53;;;15.70
28305;BMP280;15569;42.652;23.040;2023-03-14T10:55:47;92604.41;;;14.95
28305;BMP280;15569;42.652;23.040;2023-03-14T10:58:25;92596.50;;;15.60
28305;BMP280;15569;42.652;23.040;2023-03-14T11:03:31;92585.31;;;15.22
28305;BMP280;15569;42.652;23.040;2023-03-14T11:08:56;92579.41;;;15.32
28305;BMP280;15569;42.652;23.040;2023-03-14T11:11:25;92567.19;;;16.26
28305;BMP280;15569;42.652;23.040;2023-03-14T11:21:46;92545.84;;;17.73
28305;BMP280;15569;42.652;23.040;2023-03-14T11:27:18;92536.63;;;18.58
28305;BMP280;15569;42.652;23.040;2023-03-14T11:35:24;92511.72;;;19.14
28305;BMP280;15569;42.652;23.040;2023-03-14T11:38:03;92504.97;;;19.27
28305;BMP280;15569;42.652;23.040;2023-03-14T11:40:33;92513.63;;;18.30
28305;BMP280;15569;42.652;23.040;2023-03-14T11:43:06;92496.50;;;17.85
28305;BMP280;15569;42.652;23.040;2023-03-14T11:45:39;92503.44;;;18.42
28305;BMP280;15569;42.652;23.040;2023-03-14T11:48:45;92502.28;;;18.61
28305;BMP280;15569;42.652;23.040;2023-03-14T11:51:27;92488.81;;;18.95
28305;BMP280;15569;42.652;23.040;2023-03-14T11:59:20;92467.78;;;18.52
28305;BMP280;15569;42.652;23.040;2023-03-14T12:07:19;92456.47;;;17.25
28305;BMP280;15569;42.652;23.040;2023-03-14T12:09:47;92443.19;;;17.55
28305;BMP280;15569;42.652;23.040;2023-03-14T12:12:18;92447.78;;;18.50
28305;BMP280;15569;42.652;23.040;2023-03-14T12:14:50;92448.19;;;18.90
28305;BMP280;15569;42.652;23.040;2023-03-14T12:17:20;92442.13;;;19.07
28305;BMP280;15569;42.652;23.040;2023-03-14T12:19:46;92431.03;;;19.01
28305;BMP280;15569;42.652;23.040;2023-03-14T12:22:23;92430.78;;;19.63
28305;BMP280;15569;42.652;23.040;2023-03-14T12:24:57;92422.84;;;20.72
28305;BMP280;15569;42.652;23.040;2023-03-14T12:43:48;92376.22;;;23.68
28305;BMP280;15569;42.652;23.040;2023-03-14T12:46:26;92369.97;;;23.68
28305;BMP280;15569;42.652;23.040;2023-03-14T12:49:03;92367.53;;;22.69
28305;BMP280;15569;42.652;23.040;2023-03-14T12:51:35;92358.69;;;23.23
28305;BMP280;15569;42.652;23.040;2023-03-14T12:57:37;92370.25;;;24.00
28305;BMP280;15569;42.652;23.040;2023-03-14T12:59:50;92369.97;;;23.70
28305;BMP280;15569;42.652;23.040;2023-03-14T13:02:29;92371.81;;;23.29
28305;BMP280;15569;42.652;23.040;2023-03-14T13:10:13;92355.06;;;23.95
28305;BMP280;15569;42.652;23.040;2023-03-14T13:13:02;92358.28;;;23.59
28305;BMP280;15569;42.652;23.040;2023-03-14T13:15:38;92339.19;;;23.86
28305;BMP280;15569;42.652;23.040;2023-03-14T13:18:16;92340.94;;;23.59
28305;BMP280;15569;42.652;23.040;2023-03-14T13:20:45;92336.53;;;23.80
28305;BMP280;15569;42.652;23.040;2023-03-14T13:23:31;92329.94;;;24.03
28305;BMP280;15569;42.652;23.040;2023-03-14T13:25:59;92327.91;;;23.49
28305;BMP280;15569;42.652;23.040;2023-03-14T13:28:26;92329.81;;;23.63
28305;BMP280;15569;42.652;23.040;2023-03-14T13:30:56;92319.09;;;23.87
28305;BMP280;15569;42.652;23.040;2023-03-14T13:33:23;92316.25;;;23.91
28305;BMP280;15569;42.652;23.040;2023-03-14T13:35:55;92315.97;;;22.13
28305;BMP280;15569;42.652;23.040;2023-03-14T13:38:26;92295.91;;;22.15
28305;BMP280;15569;42.652;23.040;2023-03-14T13:40:55;92286.59;;;21.53
28305;BMP280;15569;42.652;23.040;2023-03-14T13:43:30;92286.19;;;22.18
28305;BMP280;15569;42.652;23.040;2023-03-14T13:48:33;92279.91;;;22.25
28305;BMP280;15569;42.652;23.040;2023-03-14T13:51:03;92271.66;;;22.96
28305;BMP280;15569;42.652;23.040;2023-03-14T13:53:29;92274.66;;;21.89
28305;BMP280;15569;42.652;23.040;2023-03-14T13:55:55;92265.97;;;21.26
28305;BMP280;15569;42.652;23.040;2023-03-14T13:58:27;92261.47;;;21.92
28305;BMP280;15569;42.652;23.040;2023-03-14T14:01:05;92257.25;;;22.83
28305;BMP280;15569;42.652;23.040;2023-03-14T14:03:34;92253.50;;;23.62
28305;BMP280;15569;42.652;23.040;2023-03-14T14:06:01;92240.25;;;24.15
28305;BMP280;15569;42.652;23.040;2023-03-14T14:08:27;92244.16;;;24.30
28305;BMP280;15569;42.652;23.040;2023-03-14T14:10:57;92227.50;;;24.69
28305;BMP280;15569;42.652;23.040;2023-03-14T14:13:24;92219.28;;;21.93
28305;BMP280;15569;42.652;23.040;2023-03-14T14:15:52;92224.69;;;22.82
28305;BMP280;15569;42.652;23.040;2023-03-14T14:18:22;92220.91;;;23.64
28305;BMP280;15569;42.652;23.040;2023-03-14T14:20:50;92211.28;;;24.43
28305;BMP280;15569;42.652;23.040;2023-03-14T14:23:20;92213.78;;;23.75
28305;BMP280;15569;42.652;23.040;2023-03-14T14:25:51;92199.78;;;24.65
28305;BMP280;15569;42.652;23.040;2023-03-14T14:28:28;92199.00;;;25.05
28305;BMP280;15569;42.652;23.040;2023-03-14T14:33:45;92192.81;;;24.66
28305;BMP280;15569;42.652;23.040;2023-03-14T14:39:09;92183.06;;;25.36
28305;BMP280;15569;42.652;23.040;2023-03-14T14:41:40;92184.53;;;25.92
28305;BMP280;15569;42.652;23.040;2023-03-14T14:44:06;92160.22;;;26.17
28305;BMP280;15569;42.652;23.040;2023-03-14T14:46:35;92150.13;;;25.16
28305;BMP280;15569;42.652;23.040;2023-03-14T14:49:19;92164.75;;;25.75
28305;BMP280;15569;42.652;23.040;2023-03-14T14:51:49;92170.16;;;25.81
28305;BMP280;15569;42.652;23.040;2023-03-14T14:54:17;92162.72;;;25.43
28305;BMP280;15569;42.652;23.040;2023-03-14T14:56:51;92169.00;;;23.99
28305;BMP280;15569;42.652;23.040;2023-03-14T14:59:21;92151.72;;;23.95
28305;BMP280;15569;42.652;23.040;2023-03-14T15:01:46;92155.59;;;23.69
28305;BMP280;15569;42.652;23.040;2023-03-14T15:04:14;92159.53;;;24.27
28305;BMP280;15569;42.652;23.040;2023-03-14T15:06:43;92144.78;;;24.71
28305;BMP280;15569;42.652;23.040;2023-03-14T15:09:11;92158.63;;;23.53
28305;BMP280;15569;42.652;23.040;2023-03-14T15:11:37;92147.59;;;23.47
28305;BMP280;15569;42.652;23.040;2023-03-14T15:14:02;92141.81;;;23.17
28305;BMP280;15569;42.652;23.040;2023-03-14T15:16:30;92142.84;;;22.89
28305;BMP280;15569;42.652;23.040;2023-03-14T15:19:00;92143.56;;;22.25
28305;BMP280;15569;42.652;23.040;2023-03-14T15:21:27;92142.56;;;22.56
28305;BMP280;15569;42.652;23.040;2023-03-14T15:23:53;92136.97;;;22.60
28305;BMP280;15569;42.652;23.040;2023-03-14T15:26:21;92137.66;;;21.92
28305;BMP280;15569;42.652;23.040;2023-03-14T15:28:47;92131.88;;;22.18
28305;BMP280;15569;42.652;23.040;2023-03-14T15:31:13;92138.84;;;22.76